createdAt,value
2022-08-05T00:01:28.567Z,1.60
2022-08-05T00:04:00.550Z,1.75
2022-08-05T00:06:32.288Z,1.45
2022-08-05T00:09:02.059Z,1.27
2022-08-05T00:11:35.109Z,1.65
2022-08-05T00:14:16.900Z,1.33
2022-08-05T00:16:53.338Z,1.65
2022-08-05T00:19:23.288Z,1.17
2022-08-05T00:21:54.949Z,1.63
2022-08-05T00:24:24.831Z,1.25
2022-08-05T00:26:57.369Z,1.20
2022-08-05T00:29:25.825Z,1.40
2022-08-05T00:32:12.499Z,1.77
2022-08-05T00:34:55.795Z,1.52
2022-08-05T00:37:50.603Z,1.73
2022-08-05T00:40:28.275Z,1.88
2022-08-05T00:43:02.211Z,1.80
2022-08-05T00:45:42.905Z,1.40
2022-08-05T00:48:15.642Z,1.80
2022-08-05T00:50:45.992Z,1.90
2022-08-05T00:53:45.081Z,1.80
2022-08-05T00:56:04.508Z,1.63
2022-08-05T00:58:30.936Z,2.45
2022-08-05T01:00:57.451Z,1.90
2022-08-05T01:03:31.101Z,1.50
2022-08-05T01:06:05.334Z,1.60
2022-08-05T01:08:43.401Z,1.52
2022-08-05T01:11:24.301Z,1.80
2022-08-05T01:14:28.011Z,1.80
2022-08-05T01:17:07.343Z,2.03
2022-08-05T01:20:01.638Z,1.45
2022-08-05T01:22:40.561Z,2.10
2022-08-05T01:25:39.789Z,1.80
2022-08-05T01:28:13.487Z,1.70
2022-08-05T01:30:53.905Z,1.77
2022-08-05T01:33:26.293Z,1.60
2022-08-05T01:35:57.563Z,1.92
2022-08-05T01:38:29.932Z,1.67
2022-08-05T01:41:03.536Z,1.67
2022-08-05T01:43:33.637Z,2.05
2022-08-05T01:46:07.572Z,1.58
2022-08-05T01:48:44.508Z,1.83
2022-08-05T01:51:12.370Z,1.88
2022-08-05T01:53:57.500Z,1.70
2022-08-05T01:58:18.881Z,2.05
2022-08-05T01:59:17.029Z,1.65
2022-08-05T02:01:49.088Z,1.77
2022-08-05T02:04:17.907Z,1.50
2022-08-05T02:06:46.833Z,2.22
2022-08-05T02:09:17.106Z,2.00
2022-08-05T02:12:10.241Z,2.00
2022-08-05T02:14:44.731Z,1.88
2022-08-05T02:18:28.338Z,2.00
2022-08-05T02:20:22.350Z,1.90
2022-08-05T02:23:01.395Z,1.70
2022-08-05T02:25:33.320Z,1.95
2022-08-05T02:28:08.996Z,1.88
2022-08-05T02:30:51.665Z,1.60
2022-08-05T02:33:24.599Z,2.13
2022-08-05T02:36:13.740Z,1.50
2022-08-05T02:38:52.894Z,2.08
2022-08-05T02:41:20.431Z,1.50
2022-08-05T02:44:02.950Z,1.40
2022-08-05T02:46:43.971Z,1.60
2022-08-05T02:49:26.032Z,1.30
2022-08-05T02:52:02.670Z,1.55
2022-08-05T02:54:35.047Z,1.30
2022-08-05T02:57:05.882Z,1.75
2022-08-05T02:59:47.839Z,1.80
2022-08-05T03:02:27.625Z,1.50
2022-08-05T03:05:00.054Z,1.40
2022-08-05T03:08:00.372Z,1.80
2022-08-05T03:10:15.823Z,1.45
2022-08-05T03:12:51.707Z,1.33
2022-08-05T03:15:18.525Z,1.30
2022-08-05T03:17:47.208Z,1.60
2022-08-05T03:20:18.599Z,1.70
2022-08-05T03:22:49.858Z,1.30
2022-08-05T03:25:32.834Z,1.33
2022-08-05T03:28:04.496Z,1.35
2022-08-05T03:30:33.707Z,1.58
2022-08-05T03:33:04.201Z,1.25
2022-08-05T03:35:41.649Z,1.20
2022-08-05T03:38:14.505Z,1.40
2022-08-05T03:40:45.338Z,1.40
2022-08-05T03:43:58.804Z,1.42
2022-08-05T03:46:03.905Z,1.50
2022-08-05T03:48:30.544Z,1.20
2022-08-05T03:52:37.528Z,1.13
2022-08-05T03:55:34.663Z,1.20
2022-08-05T03:57:16.729Z,1.90
2022-08-05T03:59:54.966Z,1.30
2022-08-05T04:02:37.499Z,1.55
2022-08-05T04:05:09.702Z,1.10
2022-08-05T04:07:53.167Z,1.33
2022-08-05T04:10:27.900Z,1.30
2022-08-05T04:12:55.480Z,1.33
2022-08-05T04:15:25.338Z,1.48
2022-08-05T04:18:00.123Z,2.00
2022-08-05T04:20:32.035Z,1.73
2022-08-05T04:23:00.001Z,2.13
2022-08-05T04:25:57.651Z,1.63
2022-08-05T04:28:14.294Z,1.50
2022-08-05T04:30:43.751Z,1.95
2022-08-05T04:33:10.165Z,1.80
2022-08-05T04:36:15.641Z,1.65
2022-08-05T04:38:39.487Z,1.42
2022-08-05T04:41:07.284Z,1.60
2022-08-05T04:43:34.005Z,1.63
2022-08-05T04:46:00.837Z,1.65
2022-08-05T04:48:28.352Z,1.80
2022-08-05T04:51:02.735Z,1.70
2022-08-05T04:53:39.520Z,1.92
2022-08-05T04:56:32.356Z,1.75
2022-08-05T04:58:57.658Z,1.65
2022-08-05T05:02:05.636Z,1.60
2022-08-05T05:04:18.907Z,1.60
2022-08-05T05:06:49.360Z,2.00
2022-08-05T05:09:18.575Z,1.50
2022-08-05T05:11:53.243Z,2.45
2022-08-05T05:14:32.210Z,1.95
2022-08-05T05:17:00.229Z,2.58
2022-08-05T05:19:36.867Z,1.70
2022-08-05T05:22:24.688Z,1.77
2022-08-05T05:24:57.277Z,1.77
2022-08-05T05:27:41.652Z,2.30
2022-08-05T05:30:29.852Z,2.33
2022-08-05T05:33:09.436Z,2.45
2022-08-05T05:35:47.445Z,2.25
2022-08-05T05:38:14.484Z,2.08
2022-08-05T05:40:49.687Z,2.30
2022-08-05T05:43:54.039Z,2.25
2022-08-05T05:46:16.034Z,2.28
2022-08-05T05:48:44.791Z,2.30
2022-08-05T05:51:21.413Z,2.42
2022-08-05T05:53:58.511Z,2.35
2022-08-05T05:56:34.944Z,2.00
2022-08-05T05:59:08.337Z,2.35
2022-08-05T06:01:39.807Z,2.80
2022-08-05T06:04:11.964Z,2.50
2022-08-05T06:06:46.628Z,2.10
2022-08-05T06:09:17.637Z,2.13
2022-08-05T06:12:02.154Z,2.20
2022-08-05T06:14:34.620Z,2.17
2022-08-05T06:17:21.917Z,2.10
2022-08-05T06:19:56.603Z,1.80
2022-08-05T06:22:33.578Z,2.33
2022-08-05T06:25:25.028Z,2.30
2022-08-05T06:28:10.501Z,1.90
2022-08-05T06:30:38.081Z,2.85
2022-08-05T06:33:04.501Z,2.08
2022-08-05T06:36:05.676Z,2.25
2022-08-05T06:38:35.576Z,2.10
2022-08-05T06:41:04.199Z,2.42
2022-08-05T06:43:59.188Z,1.85
2022-08-05T06:46:19.472Z,1.40
2022-08-05T06:48:56.131Z,1.50
2022-08-05T06:51:29.422Z,1.73
2022-08-05T06:54:00.017Z,1.70
2022-08-05T06:56:30.359Z,1.50
2022-08-05T06:59:01.186Z,1.48
2022-08-05T07:01:32.640Z,1.20
2022-08-05T07:04:01.450Z,1.48
2022-08-05T07:06:31.950Z,1.10
2022-08-05T07:08:59.248Z,1.50
2022-08-05T07:11:28.580Z,1.30
2022-08-05T07:14:20.669Z,1.27
2022-08-05T07:18:01.402Z,1.23
2022-08-05T07:22:42.746Z,1.20
2022-08-05T07:25:54.111Z,1.35
2022-08-05T07:28:03.775Z,1.30
2022-08-05T07:30:34.200Z,1.10
2022-08-05T07:33:05.460Z,1.20
2022-08-05T07:36:04.334Z,1.13
2022-08-05T07:38:33.677Z,1.10
2022-08-05T07:42:08.400Z,1.10
2022-08-05T07:43:56.926Z,1.02
2022-08-05T07:46:29.442Z,1.10
2022-08-05T07:49:05.515Z,0.90
2022-08-05T07:51:48.696Z,1.10
2022-08-05T07:54:21.956Z,1.27
2022-08-05T07:57:02.527Z,1.05
2022-08-05T07:59:40.159Z,0.90
2022-08-05T08:02:16.513Z,0.85
2022-08-05T08:04:48.202Z,1.10
2022-08-05T08:07:18.558Z,0.80
2022-08-05T08:09:49.833Z,1.10
2022-08-05T08:12:37.518Z,0.98
2022-08-05T08:15:15.668Z,0.93
2022-08-05T08:17:49.893Z,0.90
2022-08-05T08:20:45.139Z,1.00
2022-08-05T08:24:02.216Z,0.70
2022-08-05T08:26:02.817Z,1.05
2022-08-05T08:28:36.411Z,1.15
2022-08-05T08:31:15.108Z,1.00
2022-08-05T08:33:44.892Z,1.02
2022-08-05T08:36:38.617Z,0.85
2022-08-05T08:39:03.070Z,1.00
2022-08-05T08:41:51.109Z,1.02
2022-08-05T08:45:18.291Z,0.90
2022-08-05T08:47:47.087Z,1.20
2022-08-05T08:50:30.011Z,0.90
2022-08-05T08:52:53.640Z,1.00
2022-08-05T08:56:01.997Z,1.00
2022-08-05T08:58:09.618Z,0.93
2022-08-05T09:00:40.973Z,1.20
2022-08-05T09:03:16.103Z,1.00
2022-08-05T09:06:08.736Z,0.82
2022-08-05T09:08:33.615Z,1.00
2022-08-05T09:11:00.049Z,0.90
2022-08-05T09:13:31.718Z,0.73
2022-08-05T09:16:03.104Z,1.05
2022-08-05T09:18:32.795Z,1.00
2022-08-05T09:20:59.242Z,0.90
2022-08-05T09:23:28.851Z,0.90
2022-08-05T09:26:22.167Z,0.85
2022-08-05T09:28:49.256Z,0.60
2022-08-05T09:31:22.732Z,0.70
2022-08-05T09:34:06.697Z,0.93
2022-08-05T09:36:54.223Z,0.88
2022-08-05T09:39:41.268Z,1.00
2022-08-05T09:42:23.232Z,1.00
2022-08-05T09:44:56.727Z,0.80
2022-08-05T09:47:36.506Z,0.90
2022-08-05T09:50:38.277Z,0.90
2022-08-05T09:53:08.811Z,1.10
2022-08-05T09:55:58.137Z,0.93
2022-08-05T09:58:29.120Z,0.80
2022-08-05T10:01:15.181Z,0.90
2022-08-05T10:04:19.346Z,0.77
2022-08-05T10:06:58.785Z,1.00
2022-08-05T10:09:29.586Z,0.80
2022-08-05T10:12:28.021Z,0.90
2022-08-05T10:15:17.125Z,0.88
2022-08-05T10:18:05.575Z,0.80
2022-08-05T10:20:39.797Z,1.00
2022-08-05T10:23:08.988Z,1.10
2022-08-05T10:25:51.596Z,0.98
2022-08-05T10:28:29.219Z,0.88
2022-08-05T10:32:53.218Z,1.10
2022-08-05T10:33:44.854Z,0.98
2022-08-05T10:36:15.619Z,1.17
2022-08-05T10:38:47.088Z,1.13
2022-08-05T10:41:46.469Z,1.20
2022-08-05T10:44:20.081Z,1.10
2022-08-05T10:46:50.743Z,1.13
2022-08-05T10:49:27.383Z,1.10
2022-08-05T10:52:03.339Z,1.08
2022-08-05T10:54:56.963Z,0.88
2022-08-05T10:57:30.810Z,1.10
2022-08-05T11:00:19.179Z,1.52
2022-08-05T11:03:24.397Z,0.95
2022-08-05T11:06:15.734Z,1.38
2022-08-05T11:09:32.179Z,1.13
2022-08-05T11:12:24.312Z,1.17
2022-08-05T11:15:19.958Z,1.05
2022-08-05T11:18:07.686Z,1.27
2022-08-05T11:20:51.094Z,1.20
2022-08-05T11:24:02.515Z,1.30
2022-08-05T11:26:28.796Z,1.00
2022-08-05T11:29:12.605Z,1.30
2022-08-05T11:31:57.638Z,1.33
2022-08-05T11:34:51.739Z,1.23
2022-08-05T11:38:26.424Z,1.40
2022-08-05T11:41:03.585Z,1.00
2022-08-05T11:44:08.049Z,1.50
2022-08-05T11:47:14.224Z,1.55
2022-08-05T11:49:51.189Z,1.42
2022-08-05T11:52:29.275Z,1.73
2022-08-05T11:54:57.659Z,1.48
2022-08-05T11:58:08.457Z,1.48
2022-08-05T12:00:38.036Z,1.67
2022-08-05T12:03:29.610Z,1.60
2022-08-05T12:06:10.146Z,1.20
2022-08-05T12:08:51.317Z,1.30
2022-08-05T12:11:22.396Z,1.30
2022-08-05T12:13:58.696Z,1.35
2022-08-05T12:16:39.505Z,1.40
2022-08-05T12:20:27.656Z,1.60
2022-08-05T12:22:01.551Z,1.52
2022-08-05T12:24:30.564Z,1.35
2022-08-05T12:26:57.434Z,1.45
2022-08-05T12:29:25.457Z,1.40
2022-08-05T12:31:56.677Z,1.10
2022-08-05T12:34:28.187Z,1.45
2022-08-05T12:36:56.276Z,1.60
2022-08-05T12:39:34.265Z,1.13
2022-08-05T12:42:03.825Z,1.30
2022-08-05T12:44:33.566Z,1.00
2022-08-05T12:47:01.890Z,1.40
2022-08-05T12:50:04.596Z,1.40
2022-08-05T12:52:39.033Z,1.33
2022-08-05T12:55:22.268Z,1.15
2022-08-05T12:58:39.030Z,1.30
2022-08-05T13:02:04.063Z,1.50
2022-08-05T13:03:32.046Z,1.40
2022-08-05T13:05:59.656Z,1.60
2022-08-05T13:08:32.439Z,1.23
2022-08-05T13:11:04.404Z,1.48
2022-08-05T13:14:04.539Z,1.27
2022-08-05T13:16:20.216Z,1.48
2022-08-05T13:18:57.659Z,1.65
2022-08-05T13:21:47.771Z,1.50
2022-08-05T13:24:15.368Z,1.40
2022-08-05T13:27:04.103Z,1.40
2022-08-05T13:29:37.568Z,1.50
2022-08-05T13:32:05.493Z,1.60
2022-08-05T13:34:37.993Z,1.50
2022-08-05T13:37:09.649Z,1.40
2022-08-05T13:40:16.090Z,1.50
2022-08-05T13:42:32.104Z,1.67
2022-08-05T13:44:59.009Z,1.60
2022-08-05T13:47:36.100Z,1.70
2022-08-05T13:50:17.103Z,1.60
2022-08-05T13:52:43.602Z,1.48
2022-08-05T13:55:12.998Z,1.10
2022-08-05T13:57:59.438Z,1.48
2022-08-05T14:00:31.344Z,1.45
2022-08-05T14:02:58.193Z,1.70
2022-08-05T14:06:24.521Z,1.40
2022-08-05T14:08:20.833Z,1.35
2022-08-05T14:10:53.596Z,1.23
2022-08-05T14:13:32.162Z,1.40
2022-08-05T14:16:04.879Z,1.40
2022-08-05T14:18:35.851Z,1.60
2022-08-05T14:22:07.257Z,1.30
2022-08-05T14:23:55.647Z,1.50
2022-08-05T14:26:35.783Z,1.42
2022-08-05T14:29:16.766Z,1.42
2022-08-05T14:32:03.061Z,1.20
2022-08-05T14:34:35.864Z,1.40
2022-08-05T14:37:05.196Z,1.50
2022-08-05T14:39:49.776Z,1.75
2022-08-05T14:42:29.459Z,1.50
2022-08-05T14:44:58.546Z,1.70
2022-08-05T14:48:04.146Z,1.38
2022-08-05T14:50:18.399Z,1.65
2022-08-05T14:52:53.094Z,1.70
2022-08-05T14:55:25.628Z,1.27
2022-08-05T14:57:57.623Z,1.90
2022-08-05T15:00:28.005Z,1.63
2022-08-05T15:02:58.198Z,1.42
2022-08-05T15:05:29.646Z,1.20
2022-08-05T15:08:06.068Z,1.50
2022-08-05T15:10:38.795Z,2.20
2022-08-05T15:13:06.008Z,7.13
2022-08-05T15:15:54.152Z,4.32
2022-08-05T15:18:24.986Z,5.13
2022-08-05T15:20:51.412Z,5.18
2022-08-05T15:23:20.232Z,5.30
2022-08-05T15:25:52.036Z,5.00
2022-08-05T15:28:26.971Z,4.93
2022-08-05T15:30:53.922Z,5.32
2022-08-05T15:34:04.433Z,4.90
2022-08-05T15:36:17.505Z,5.05
2022-08-05T15:41:00.284Z,5.82
2022-08-05T15:41:57.398Z,4.38
2022-08-05T15:44:26.569Z,5.75
2022-08-05T15:46:54.519Z,6.18
2022-08-05T15:49:41.886Z,5.20
2022-08-05T15:52:16.092Z,4.70
2022-08-05T15:54:45.794Z,4.65
2022-08-05T15:57:16.074Z,5.43
2022-08-05T15:59:42.793Z,4.57
2022-08-05T16:02:14.748Z,5.10
2022-08-05T16:04:46.192Z,4.35
2022-08-05T16:07:15.190Z,4.20
2022-08-05T16:09:42.208Z,3.72
2022-08-05T16:12:10.136Z,4.30
2022-08-05T16:14:40.888Z,4.28
2022-08-05T16:17:07.519Z,4.10
2022-08-05T16:20:05.297Z,3.63
2022-08-05T16:22:34.265Z,3.78
2022-08-05T16:25:09.845Z,3.78
2022-08-05T16:27:47.049Z,3.67
2022-08-05T16:30:26.083Z,3.75
2022-08-05T16:32:54.138Z,3.20
2022-08-05T16:35:28.686Z,3.42
2022-08-05T16:38:23.674Z,3.67
2022-08-05T16:40:55.028Z,3.72
2022-08-05T16:43:31.099Z,3.13
2022-08-05T16:46:07.730Z,3.38
2022-08-05T16:48:48.001Z,3.10
2022-08-05T16:51:15.887Z,2.90
2022-08-05T16:54:05.726Z,3.13
2022-08-05T16:56:33.768Z,3.13
2022-08-05T16:59:08.325Z,3.30
2022-08-05T17:01:53.957Z,3.10
2022-08-05T17:04:26.357Z,2.85
2022-08-05T17:06:55.196Z,2.90
2022-08-05T17:09:21.666Z,3.08
2022-08-05T17:11:50.837Z,2.70
2022-08-05T17:14:34.430Z,3.05
2022-08-05T17:17:05.489Z,4.80
2022-08-05T17:19:31.920Z,3.20
2022-08-05T17:22:03.793Z,2.58
2022-08-05T17:24:40.332Z,2.50
2022-08-05T17:27:10.071Z,2.55
2022-08-05T17:29:40.830Z,2.80
2022-08-05T17:32:17.311Z,2.53
2022-08-05T17:34:44.409Z,2.55
2022-08-05T17:37:35.968Z,2.78
2022-08-05T17:40:01.900Z,2.45
2022-08-05T17:42:36.767Z,2.40
2022-08-05T17:45:18.005Z,2.97
2022-08-05T17:47:52.907Z,2.50
2022-08-05T17:50:28.910Z,2.38
2022-08-05T17:53:04.899Z,2.28
2022-08-05T17:55:37.618Z,2.30
2022-08-05T17:58:09.452Z,2.30
2022-08-05T18:00:44.935Z,2.90
2022-08-05T18:03:56.343Z,2.47
2022-08-05T18:06:12.341Z,2.60
2022-08-05T18:08:52.187Z,3.30
2022-08-05T18:11:23.663Z,3.40
2022-08-05T18:13:56.284Z,3.95
2022-08-05T18:16:22.990Z,3.30
2022-08-05T18:18:53.013Z,3.92
2022-08-05T18:21:23.061Z,4.10
2022-08-05T18:23:53.478Z,4.00
2022-08-05T18:26:21.699Z,4.10
2022-08-05T18:28:54.363Z,4.47
2022-08-05T18:31:22.368Z,5.10
2022-08-05T18:33:54.899Z,4.35
2022-08-05T18:36:28.042Z,5.05
2022-08-05T18:38:55.046Z,5.43
2022-08-05T18:41:57.045Z,5.25
2022-08-05T18:44:14.581Z,5.85
2022-08-05T18:47:00.395Z,5.30
2022-08-05T18:49:58.030Z,5.68
2022-08-05T18:52:41.567Z,6.22
2022-08-05T18:55:18.479Z,5.95
2022-08-05T18:57:53.061Z,5.90
2022-08-05T19:00:26.983Z,6.43
2022-08-05T19:02:55.388Z,5.68
2022-08-05T19:06:05.595Z,6.60
2022-08-05T19:08:13.404Z,7.22
2022-08-05T19:10:40.370Z,7.10
2022-08-05T19:13:07.230Z,7.43
2022-08-05T19:15:59.324Z,6.38
2022-08-05T19:18:28.546Z,7.40
2022-08-05T19:20:55.754Z,6.95
2022-08-05T19:24:04.501Z,7.32
2022-08-05T19:26:09.469Z,7.50
2022-08-05T19:28:41.798Z,6.40
2022-08-05T19:31:13.284Z,7.18
2022-08-05T19:33:48.340Z,7.30
2022-08-05T19:36:26.640Z,6.60
2022-08-05T19:39:00.860Z,7.18
2022-08-05T19:41:58.540Z,6.75
2022-08-05T19:44:15.425Z,5.95
2022-08-05T19:46:43.770Z,6.38
2022-08-05T19:49:16.792Z,5.93
2022-08-05T19:52:05.132Z,6.25
2022-08-05T19:54:34.625Z,6.07
2022-08-05T19:57:06.479Z,6.45
2022-08-05T19:59:56.428Z,5.35
2022-08-05T20:02:32.119Z,5.22
2022-08-05T20:05:01.328Z,6.03
2022-08-05T20:07:46.022Z,5.70
2022-08-05T20:10:14.511Z,5.90
2022-08-05T20:12:46.256Z,5.70
2022-08-05T20:15:47.744Z,6.05
2022-08-05T20:18:10.520Z,5.78
2022-08-05T20:20:57.486Z,5.78
2022-08-05T20:23:39.843Z,5.40
2022-08-05T20:26:18.984Z,5.93
2022-08-05T20:28:50.407Z,6.13
2022-08-05T20:31:21.437Z,5.55
2022-08-05T20:33:55.077Z,5.15
2022-08-05T20:36:23.918Z,5.55
2022-08-05T20:38:54.537Z,6.43
2022-08-05T20:41:44.116Z,5.60
2022-08-05T20:44:28.965Z,5.38
2022-08-05T20:46:59.079Z,5.45
2022-08-05T20:49:28.420Z,5.80
2022-08-05T20:51:55.936Z,5.22
2022-08-05T20:54:42.661Z,5.30
2022-08-05T20:57:42.084Z,5.38
2022-08-05T21:00:20.891Z,5.00
2022-08-05T21:02:57.818Z,4.90
2022-08-05T21:05:24.736Z,4.90
2022-08-05T21:07:52.247Z,4.88
2022-08-05T21:10:19.097Z,4.25
2022-08-05T21:12:57.715Z,4.40
2022-08-05T21:15:33.664Z,4.10
2022-08-05T21:18:05.250Z,4.60
2022-08-05T21:20:33.231Z,3.92
2022-08-05T21:23:00.031Z,3.88
2022-08-05T21:25:33.973Z,4.05
2022-08-05T21:28:03.236Z,4.53
2022-08-05T21:30:34.657Z,4.15
2022-08-05T21:33:03.747Z,4.40
2022-08-05T21:35:55.372Z,3.90
2022-08-05T21:38:21.594Z,4.22
2022-08-05T21:40:50.484Z,3.95
2022-08-05T21:43:24.494Z,3.60
2022-08-05T21:45:57.845Z,3.55
2022-08-05T21:48:27.914Z,3.15
2022-08-05T21:50:57.542Z,3.30
2022-08-05T21:53:27.686Z,3.70
2022-08-05T21:56:09.762Z,3.90
2022-08-05T21:58:57.125Z,3.60
2022-08-05T22:01:27.513Z,3.97
2022-08-05T22:03:56.360Z,3.22
2022-08-05T22:06:34.921Z,3.67
2022-08-05T22:09:13.984Z,3.63
2022-08-05T22:11:41.714Z,3.80
2022-08-05T22:14:37.492Z,3.42
2022-08-05T22:17:05.000Z,3.03
2022-08-05T22:20:03.576Z,2.95
2022-08-05T22:22:27.065Z,3.15
2022-08-05T22:25:21.293Z,2.92
2022-08-05T22:28:09.595Z,2.60
2022-08-05T22:30:56.262Z,2.50
2022-08-05T22:33:57.632Z,2.88
2022-08-05T22:36:18.850Z,2.67
2022-08-05T22:38:48.504Z,3.10
2022-08-05T22:42:04.143Z,3.55
2022-08-05T22:44:09.239Z,2.65
2022-08-05T22:46:39.714Z,2.70
2022-08-05T22:49:23.235Z,2.72
2022-08-05T22:52:05.586Z,2.80
2022-08-05T22:54:35.726Z,2.50
2022-08-05T22:57:03.511Z,2.28
2022-08-05T22:59:46.294Z,2.92
2022-08-05T23:02:29.583Z,2.10
2022-08-05T23:04:57.857Z,2.78
2022-08-05T23:07:31.460Z,1.98
2022-08-05T23:10:01.928Z,2.05
2022-08-05T23:12:32.595Z,1.52
2022-08-05T23:15:03.615Z,1.73
2022-08-05T23:17:37.642Z,1.70
2022-08-05T23:20:19.475Z,1.40
2022-08-05T23:22:49.927Z,1.70
2022-08-05T23:25:51.216Z,1.40
2022-08-05T23:28:10.935Z,1.48
2022-08-05T23:30:43.556Z,1.40
2022-08-05T23:33:16.155Z,1.45
2022-08-05T23:35:56.627Z,1.20
2022-08-05T23:38:26.182Z,1.42
2022-08-05T23:40:53.322Z,1.50
2022-08-05T23:43:25.138Z,1.30
2022-08-05T23:46:05.059Z,1.20
2022-08-05T23:49:00.440Z,1.20
2022-08-05T23:51:53.981Z,1.27
2022-08-05T23:54:30.422Z,0.90
2022-08-05T23:57:04.813Z,1.00
